x

Lake Winnipeg Narrows (45145) Wave Buoy

8:00am - Wed 31st Aug 2016 All times are UTC.

  • Sig Wave height 1.0ft
  • Peak Period 3s
  • Wind
    13mph, 16mph gusts
  • Sea Temp 67°f
  • Air Temp 59°f
  • Sea Pressure 1025.8mb

More Historic Weather Station data

Upgrade to MSW Pro to gain access to the past 30 days of data for over 8000 Wavebouys and Weather Stations around the globe.

Join Pro

Comparision Forecast

View Surf forecast
   
Wed 08/31 8:00am 1ft 3s 13 16 mph 1025.8mb 67f 59f
7:00am 1.3ft 3s 13 16 mph 1025.5mb 67f 60f
6:00am 1.3ft 3s 13 16 mph 1025.1mb 67f 61f
5:00am 1.3ft 4s 13 18 mph 1024.7mb 67f 62f
4:00am 1.6ft 4s 13 16 mph 1024.5mb 67f 62f
3:00am 2ft 4s 13 18 mph 1024.5mb 67f 62f
2:00am 2ft 4s 16 20 mph 1024.5mb 67f 62f
1:00am 2ft 4s 16 18 mph 1024.1mb 67f 62f
12:00am 2.5ft 4s 16 18 mph 1024mb 67f 62f
Tue 08/30 11:00pm 2ft 4s 16 20 mph 1024.1mb 67f 62f
10:00pm 2.5ft 4s 18 20 mph 1023.8mb 67f 63f
9:00pm 2ft 4s 16 20 mph 1023.5mb 67f 63f
8:00pm 2.5ft 4s 18 20 mph 1023.6mb 67f 62f
7:00pm 2ft 4s 18 22 mph 1023.5mb 67f 62f
6:00pm 2ft 4s 18 22 mph 1023.4mb 67f 62f
5:00pm 2ft 4s 18 22 mph 1023.4mb 67f 62f
4:00pm 1.6ft 4s 16 20 mph 1023.3mb 67f 63f
3:00pm 1.6ft 4s 16 18 mph 1023.3mb 67f 62f
2:00pm 1.6ft 4s 16 18 mph 1022.8mb 67f 61f
1:00pm 1.6ft 4s 16 18 mph 1022.7mb 67f 62f
12:00pm 1.6ft 4s 13 16 mph 1022.6mb 67f 62f
11:00am 2ft 4s 13 18 mph 1022.3mb 67f 62f
10:00am 2ft 3s 16 18 mph 1021.9mb 67f 63f
9:00am 1.6ft 4s 18 20 mph 1021.5mb 67f 62f
8:00am 1.6ft 3s 18 20 mph 1020.9mb 67f 64f
7:00am 1.6ft 3s 16 18 mph 1020.7mb 67f 63f
6:00am 1.3ft 3s 16 18 mph 1020.9mb 67f 64f
5:00am 1ft 2s 13 16 mph 1020.7mb 67f 64f
4:00am 1ft 2s 16 18 mph 1020.6mb 68f 66f
3:00am 1ft 2s 7 9 mph 1020.6mb 68f 66f
2:00am 1.3ft 3s 9 13 mph 1020.3mb 68f 66f
1:00am 1.6ft 3s 13 18 mph 1020mb 68f 67f
12:00am 1.3ft 3s 13 18 mph 1020mb 68f 67f
Mon 08/29 11:00pm 1.6ft 3s 13 16 mph 1020.2mb 68f 67f
10:00pm 1.3ft 2s 16 18 mph 1020mb 68f 67f
9:00pm 1.3ft 4s 16 18 mph 1020.1mb 68f 66f
8:00pm 1.3ft 3s 13 16 mph 1020.2mb 68f 65f
7:00pm 1.3ft 4s 13 16 mph 1020.5mb 68f 64f
6:00pm 1.6ft 4s 11 16 mph 1020.5mb 68f 62f
5:00pm 1.6ft 4s 16 18 mph 1020.6mb 67f 60f
4:00pm 2ft 4s 16 20 mph 1020.4mb 67f 60f
3:00pm 2.5ft 4s 18 20 mph 1019.9mb 67f 61f
2:00pm 3ft 4s 18 22 mph 1019.7mb 67f 61f
1:00pm 3ft 4s 22 25 mph 1019.3mb 68f 62f
12:00pm 2.5ft 4s 22 27 mph 1018.4mb 68f 63f
11:00am 1.6ft 3s 22 25 mph 1017.5mb 68f 65f
10:00am 1ft 2s 18 20 mph 1016.8mb 68f 66f
9:00am 1ft 3s 11 13 mph 1015.6mb 68f 66f
8:00am 0.7ft 2s 16 18 mph 1014.8mb 68f 67f
7:00am 0.7ft 3s 9 11 mph 1014.4mb 68f 68f
6:00am 1ft 3s 4 7 mph 1014.1mb 68f 68f
5:00am 1.6ft 3s 13 16 mph 1014.3mb 68f 69f
4:00am 1.6ft 3s 20 22 mph 1013.9mb 68f 68f
3:00am 1.6ft 3s 18 20 mph 1013mb 68f 69f
2:00am 2.5ft 4s 27 34 mph 1012.7mb 68f 68f
12:00am 1.3ft 3s 13 16 mph 1012.6mb 68f 73f
Sun 08/28 11:00pm 1.6ft 3s 16 18 mph 1012.3mb 68f 74f
10:00pm 2ft 3s 16 20 mph 1012.4mb 68f 72f
9:00pm 2ft 3s 16 25 mph 1013.1mb 68f 73f
8:00pm 2ft 4s 20 25 mph 1013.2mb 68f 71f
7:00pm 2ft 3s 20 22 mph 1013.6mb 68f 70f
6:00pm 2ft 4s 20 22 mph 1014.2mb 68f 68f
5:00pm 2ft 4s 22 25 mph 1014.6mb 68f 67f
4:00pm 2ft 3s 22 27 mph 1014.9mb 68f 65f
3:00pm 2ft 3s 18 22 mph 1015.2mb 68f 64f
2:00pm 1.6ft 3s 18 20 mph 1015.1mb 68f 64f
12:00pm 1.3ft 3s 16 18 mph 1014.8mb 68f 63f
11:00am 1.3ft 3s 11 18 mph 1014.6mb 68f 63f
10:00am 1.3ft 3s 13 18 mph 1014.4mb 68f 64f
9:00am 1.3ft 3s 16 18 mph 1013.9mb 68f 64f
8:00am 1.6ft 3s 16 20 mph 1013.7mb 68f 65f
7:00am 1.6ft 3s 18 20 mph 1013.7mb 68f 65f
6:00am 1.3ft 2s 18 20 mph 1013.6mb 68f 65f
5:00am 1.3ft 3s 16 20 mph 1013.3mb 68f 66f
4:00am 1.3ft 2s 13 16 mph 1013.2mb 68f 67f
3:00am 1ft 3s 16 18 mph 1012.6mb 68f 67f
2:00am 1.3ft 3s 13 16 mph 1012.2mb 68f 68f
1:00am 1.6ft 3s 16 20 mph 1011.5mb 68f 69f
12:00am 1.6ft 3s 16 18 mph 1011.2mb 68f 69f
Sat 08/27 11:00pm 1.6ft 3s 16 20 mph 1010.9mb 68f 69f
10:00pm 2ft 3s 18 22 mph 1010.9mb 68f 69f
9:00pm 1.6ft 3s 20 25 mph 1011mb 68f 67f
8:00pm 2ft 3s 16 18 mph 1011.1mb 68f 68f
7:00pm 2.5ft 4s 18 20 mph 1011mb 68f 67f
6:00pm 1.6ft 3s 20 25 mph 1010.9mb 68f 65f
5:00pm 1ft 3s 13 20 mph 1011.1mb 68f 65f
4:00pm 1.3ft 3s 9 11 mph 1011.2mb 68f 64f
3:00pm 1.3ft 3s 13 18 mph 1011.4mb 68f 63f
2:00pm 1.3ft 3s 16 18 mph 1011.1mb 68f 62f
1:00pm 1.3ft 3s 13 18 mph 1011.2mb 68f 62f
12:00pm 1.3ft 3s 13 16 mph 1011.2mb 68f 63f
11:00am 1.3ft 3s 13 16 mph 1010.9mb 68f 64f
10:00am 1.3ft 3s 16 18 mph 1010.8mb 68f 66f